Time;durP1;ratioP1;P1;durP2;ratioP2;P2;SDS_P1;SDS_P2;PMS_P1;PMS_P2;Temp;Humidity;BMP_temperature;BMP_pressure;BME280_temperature;BME280_humidity;BME280_pressure;Samples;Min_cycle;Max_cycle;Signal;HPM_P1;HPM_P2
2023/01/09 00:00:43;;;;;;;65.05;43.90;;;7.40;99.90;;;;;;5095659;28;20028;-64
2023/01/09 00:03:09;;;;;;;50.08;36.30;;;7.30;99.90;;;;;;5095870;28;20054;-64
2023/01/09 00:05:34;;;;;;;49.42;34.95;;;7.30;99.90;;;;;;5095738;28;20054;-68
2023/01/09 00:08:00;;;;;;;44.67;32.03;;;7.30;99.90;;;;;;5095623;28;20486;-64
2023/01/09 00:10:26;;;;;;;43.70;31.77;;;7.30;99.90;;;;;;5095690;28;20085;-64
2023/01/09 00:12:51;;;;;;;47.25;33.97;;;7.40;99.90;;;;;;5095600;28;20022;-68
2023/01/09 00:15:17;;;;;;;44.65;30.45;;;7.40;99.90;;;;;;5095500;28;20508;-70
2023/01/09 00:17:43;;;;;;;59.53;39.13;;;7.40;99.90;;;;;;5077517;28;20103;-67
2023/01/09 00:20:09;;;;;;;49.17;34.67;;;7.40;99.90;;;;;;5095229;28;20462;-64
2023/01/09 00:22:36;;;;;;;45.28;31.52;;;7.30;99.90;;;;;;5095520;28;20085;-67
2023/01/09 00:25:03;;;;;;;45.20;30.30;;;7.30;99.90;;;;;;5095324;28;20016;-64
2023/01/09 00:27:33;;;;;;;54.03;37.50;;;7.30;99.90;;;;;;5095343;28;20490;-67
2023/01/09 00:29:58;;;;;;;43.55;30.08;;;7.30;99.90;;;;;;5095271;28;20019;-65
2023/01/09 00:32:25;;;;;;;45.97;31.42;;;7.20;99.90;;;;;;5095166;28;20113;-70
2023/01/09 00:34:51;;;;;;;60.85;39.47;;;7.20;99.90;;;;;;5095218;28;20020;-63
2023/01/09 00:37:16;;;;;;;50.58;35.15;;;7.20;99.90;;;;;;5095108;28;20382;-68
2023/01/09 00:39:42;;;;;;;48.97;35.00;;;7.20;99.90;;;;;;5095153;28;20107;-65
2023/01/09 00:42:19;;;;;;;46.40;34.30;;;7.00;99.90;;;;;;5094933;28;20046;-70
2023/01/09 00:44:49;;;;;;;48.33;33.33;;;7.10;99.90;;;;;;5094642;28;20024;-63
2023/01/09 00:47:20;;;;;;;46.13;30.20;;;7.00;99.90;;;;;;5094931;28;20040;-64
2023/01/09 00:49:46;;;;;;;53.83;37.38;;;7.00;99.90;;;;;;5095074;28;20020;-65
2023/01/09 00:52:13;;;;;;;44.15;32.45;;;6.90;99.90;;;;;;5094711;28;20474;-66
2023/01/09 00:54:40;;;;;;;49.20;33.05;;;6.80;99.90;;;;;;5094962;28;20023;-65
2023/01/09 00:57:06;;;;;;;38.72;28.52;;;6.80;99.90;;;;;;5094853;28;20070;-67
2023/01/09 00:59:32;;;;;;;44.85;31.00;;;6.90;99.90;;;;;;5094335;28;20036;-66
2023/01/09 01:01:58;;;;;;;41.05;27.92;;;6.90;99.90;;;;;;5094786;28;20135;-67
2023/01/09 01:09:52;;;;;;;37.38;25.52;;;7.10;99.90;;;;;;5094554;28;20039;-69
2023/01/09 01:12:17;;;;;;;47.65;32.63;;;7.10;99.90;;;;;;5094527;28;20012;-69
2023/01/09 01:14:43;;;;;;;52.30;34.17;;;7.10;99.90;;;;;;5094206;28;20378;-64
2023/01/09 01:17:09;;;;;;;66.10;44.78;;;7.00;99.90;;;;;;5094570;28;20024;-70
2023/01/09 01:19:35;;;;;;;70.55;42.70;;;7.00;99.90;;;;;;5094587;28;20035;-68
2023/01/09 01:22:02;;;;;;;65.57;42.42;;;6.90;99.90;;;;;;5094330;28;20531;-64
2023/01/09 01:24:28;;;;;;;69.20;45.38;;;7.00;99.90;;;;;;5094367;28;20474;-62
2023/01/09 01:26:53;;;;;;;65.50;41.47;;;7.00;99.90;;;;;;5094378;28;20099;-65
2023/01/09 01:29:19;;;;;;;49.47;34.67;;;7.10;99.90;;;;;;5093963;28;20032;-64
2023/01/09 01:31:45;;;;;;;44.95;30.48;;;7.10;99.90;;;;;;5094020;28;20400;-62
2023/01/09 01:34:11;;;;;;;40.13;28.40;;;7.20;99.90;;;;;;5094245;28;20121;-66
2023/01/09 01:36:36;;;;;;;34.78;24.90;;;7.20;99.90;;;;;;5094122;28;20023;-64
2023/01/09 01:39:02;;;;;;;32.78;23.48;;;7.30;99.90;;;;;;5094096;28;20043;-65
2023/01/09 01:41:28;;;;;;;29.70;21.45;;;7.30;99.90;;;;;;5094059;28;20486;-69
2023/01/09 01:44:32;;;;;;;31.02;21.90;;;7.30;99.90;;;;;;5093905;28;20020;-66
2023/01/09 01:46:58;;;;;;;31.67;22.17;;;7.30;99.90;;;;;;5055972;28;20043;-68
2023/01/09 01:49:24;;;;;;;30.95;22.58;;;7.30;99.90;;;;;;5093932;28;20067;-66
2023/01/09 01:51:52;;;;;;;27.75;20.05;;;7.20;99.90;;;;;;5093946;28;20095;-68
2023/01/09 01:54:23;;;;;;;34.40;24.10;;;7.20;99.90;;;;;;5094039;28;20024;-59
2023/01/09 01:56:55;;;;;;;26.30;18.40;;;7.20;99.90;;;;;;5093678;28;20048;-66
2023/01/09 01:59:56;;;;;;;22.77;16.35;;;7.20;99.90;;;;;;5093529;28;20472;-70
2023/01/09 02:02:28;;;;;;;21.90;16.48;;;7.20;99.90;;;;;;5088878;28;20043;-70
2023/01/09 02:04:56;;;;;;;30.38;21.05;;;7.30;99.90;;;;;;5093906;28;20020;-64
2023/01/09 02:07:22;;;;;;;21.13;16.88;;;7.30;99.90;;;;;;5093751;28;20439;-60
2023/01/09 02:09:47;;;;;;;24.25;17.55;;;7.30;99.90;;;;;;5075678;28;20059;-66
2023/01/09 02:12:22;;;;;;;28.75;19.05;;;7.30;99.90;;;;;;5093543;28;20030;-70
2023/01/09 02:15:04;;;;;;;25.00;17.67;;;7.20;99.90;;;;;;5093825;28;20068;-64
2023/01/09 02:17:41;;;;;;;27.90;20.10;;;7.30;99.90;;;;;;5075700;28;20032;-66
2023/01/09 02:20:42;;;;;;;22.63;16.85;;;7.30;99.90;;;;;;5093667;28;20068;-67
2023/01/09 02:23:45;;;;;;;19.55;15.13;;;7.40;99.90;;;;;;5093680;28;20054;-62
2023/01/09 02:26:22;;;;;;;35.88;25.90;;;7.50;99.90;;;;;;5093314;28;20073;-65
2023/01/09 02:29:06;;;;;;;37.53;24.67;;;7.50;99.90;;;;;;5093486;28;20028;-70
2023/01/09 02:32:14;;;;;;;31.85;22.90;;;7.40;99.90;;;;;;5093487;28;20016;-67
2023/01/09 02:34:51;;;;;;;22.80;16.40;;;7.50;99.90;;;;;;5046401;28;20047;-66
2023/01/09 02:37:38;;;;;;;18.83;14.95;;;7.60;99.90;;;;;;5093639;28;20059;-63
2023/01/09 02:40:31;;;;;;;17.40;13.32;;;7.60;99.90;;;;;;5093418;28;20545;-68
2023/01/09 02:42:59;;;;;;;17.17;12.50;;;7.70;99.90;;;;;;5064850;28;20063;-64
2023/01/09 02:45:25;;;;;;;20.90;14.55;;;7.60;99.90;;;;;;5097462;28;20017;-68
2023/01/09 02:47:51;;;;;;;19.38;13.60;;;7.50;99.90;;;;;;5097382;28;20021;-61
2023/01/09 02:50:45;;;;;;;15.95;11.95;;;7.60;99.90;;;;;;5097161;28;20067;-68
2023/01/09 02:53:30;;;;;;;15.27;11.48;;;7.60;99.90;;;;;;5094100;28;20047;-68
2023/01/09 02:56:16;;;;;;;15.77;11.90;;;7.70;99.90;;;;;;5096977;28;20028;-67
2023/01/09 02:59:16;;;;;;;13.32;10.43;;;7.70;99.90;;;;;;5096770;28;20036;-66
2023/01/09 03:02:08;;;;;;;16.13;11.18;;;7.70;99.90;;;;;;5096874;28;20095;-63
2023/01/09 03:05:02;;;;;;;16.00;11.95;;;7.70;99.90;;;;;;5092045;28;20117;-64
2023/01/09 03:07:40;;;;;;;13.32;10.32;;;7.60;99.90;;;;;;5097054;28;20488;-67
2023/01/09 03:10:32;;;;;;;14.45;10.77;;;7.60;99.90;;;;;;5096878;28;20031;-65
2023/01/09 03:13:00;;;;;;;13.27;10.20;;;7.70;99.90;;;;;;5096754;28;20028;-63
2023/01/09 03:15:31;;;;;;;17.20;12.32;;;7.70;99.90;;;;;;5096926;28;20020;-66
2023/01/09 03:17:58;;;;;;;13.88;10.57;;;7.70;99.90;;;;;;5096885;28;20088;-69
2023/01/09 03:20:26;;;;;;;14.30;10.52;;;7.60;99.90;;;;;;5096617;28;20040;-66
2023/01/09 03:22:56;;;;;;;14.63;10.40;;;7.50;99.90;;;;;;5096562;28;20020;-66
2023/01/09 03:25:24;;;;;;;15.13;12.27;;;7.50;99.90;;;;;;5096438;28;20024;-68
2023/01/09 03:27:59;;;;;;;17.60;11.57;;;7.60;99.90;;;;;;5096683;28;20016;-65
2023/01/09 03:30:27;;;;;;;16.98;12.50;;;7.60;99.90;;;;;;5096444;28;20024;-64
2023/01/09 03:32:53;;;;;;;15.05;12.38;;;7.60;99.90;;;;;;5096622;28;20103;-64
2023/01/09 03:35:18;;;;;;;13.77;11.15;;;7.50;99.90;;;;;;5096427;28;20062;-64
2023/01/09 03:37:44;;;;;;;16.73;12.32;;;7.50;99.90;;;;;;5096143;28;20043;-69
2023/01/09 03:40:10;;;;;;;15.95;12.25;;;7.50;99.90;;;;;;5096041;28;20077;-64
2023/01/09 03:42:36;;;;;;;12.57;10.15;;;7.50;99.90;;;;;;5096381;28;20046;-65
2023/01/09 03:45:03;;;;;;;14.80;9.40;;;7.50;99.90;;;;;;5096040;28;20021;-65
2023/01/09 03:47:28;;;;;;;17.55;12.85;;;7.50;99.90;;;;;;5096223;28;20114;-63
2023/01/09 03:49:54;;;;;;;13.50;10.32;;;7.50;99.90;;;;;;5096144;28;20056;-62
2023/01/09 03:52:20;;;;;;;12.63;10.18;;;7.50;99.90;;;;;;5096184;28;20012;-63
2023/01/09 03:54:45;;;;;;;16.48;12.07;;;7.60;99.90;;;;;;5095381;28;20024;-62
2023/01/09 03:57:11;;;;;;;13.95;10.18;;;7.60;99.90;;;;;;5095908;28;20030;-66
2023/01/09 03:59:37;;;;;;;13.90;11.07;;;7.60;99.90;;;;;;5095608;28;20110;-63
2023/01/09 04:02:02;;;;;;;14.95;10.77;;;7.70;99.90;;;;;;5095868;28;20047;-70
2023/01/09 04:04:28;;;;;;;15.77;11.63;;;7.70;99.90;;;;;;5095917;28;20019;-68
2023/01/09 04:06:54;;;;;;;14.85;11.25;;;7.70;99.90;;;;;;5095714;28;20114;-63
2023/01/09 04:09:19;;;;;;;13.70;10.82;;;7.80;99.90;;;;;;5095601;28;20024;-67
2023/01/09 04:11:45;;;;;;;16.50;12.77;;;7.80;99.90;;;;;;5095700;28;20028;-70
2023/01/09 04:14:11;;;;;;;12.75;10.20;;;7.90;99.90;;;;;;5095638;28;20047;-64
2023/01/09 04:16:36;;;;;;;20.05;14.45;;;7.80;99.90;;;;;;5095509;28;20069;-64
2023/01/09 04:19:02;;;;;;;17.40;11.60;;;7.80;99.90;;;;;;5095428;28;20390;-67
2023/01/09 04:21:27;;;;;;;22.05;15.35;;;7.80;99.90;;;;;;5077385;28;20047;-64
2023/01/09 04:23:53;;;;;;;16.27;12.05;;;7.80;99.90;;;;;;5095185;28;20016;-67
2023/01/09 04:26:19;;;;;;;17.85;12.30;;;7.70;99.90;;;;;;5095339;28;20437;-69
2023/01/09 04:28:45;;;;;;;27.30;18.35;;;7.80;99.90;;;;;;5095463;28;20024;-62
2023/01/09 04:31:11;;;;;;;21.55;15.07;;;7.80;99.90;;;;;;5095250;28;20062;-65
2023/01/09 04:33:37;;;;;;;20.67;14.35;;;7.80;99.90;;;;;;5095193;28;20078;-62
2023/01/09 04:36:03;;;;;;;19.80;13.40;;;7.90;99.90;;;;;;5095198;28;20020;-63
2023/01/09 04:38:28;;;;;;;23.30;15.15;;;8.00;99.90;;;;;;5095138;28;20028;-68
2023/01/09 04:40:54;;;;;;;29.33;18.13;;;8.00;99.90;;;;;;5076915;28;20433;-64
2023/01/09 04:43:20;;;;;;;22.52;15.55;;;8.00;99.90;;;;;;5095154;28;20103;-67
2023/01/09 04:45:45;;;;;;;26.75;17.50;;;8.00;99.90;;;;;;5094889;28;20024;-64
2023/01/09 04:48:11;;;;;;;32.90;20.15;;;8.00;99.90;;;;;;5094793;28;20016;-69
2023/01/09 04:50:37;;;;;;;38.70;21.52;;;8.10;99.90;;;;;;5094793;28;20462;-65
2023/01/09 04:53:02;;;;;;;33.70;20.90;;;8.10;99.90;;;;;;5094647;28;20026;-66
2023/01/09 04:55:28;;;;;;;50.40;31.25;;;8.20;99.90;;;;;;5094848;28;20391;-69
2023/01/09 04:57:54;;;;;;;52.80;34.30;;;8.10;99.90;;;;;;5094630;28;20024;-63
2023/01/09 05:00:20;;;;;;;69.38;40.80;;;8.00;99.90;;;;;;5094686;28;20382;-64
2023/01/09 05:02:45;;;;;;;48.42;32.35;;;8.00;99.90;;;;;;5094980;28;20016;-67
2023/01/09 05:05:12;;;;;;;67.25;40.90;;;8.00;99.90;;;;;;5094427;28;20043;-64
2023/01/09 05:07:38;;;;;;;53.55;34.97;;;8.00;99.90;;;;;;5076214;28;20381;-62
2023/01/09 05:10:04;;;;;;;48.30;29.40;;;7.90;99.90;;;;;;5094510;28;20028;-66
2023/01/09 05:12:30;;;;;;;30.88;21.77;;;8.00;99.90;;;;;;5094395;28;20024;-64
2023/01/09 05:14:56;;;;;;;28.58;20.13;;;8.10;99.90;;;;;;5094834;28;20016;-68
2023/01/09 05:17:23;;;;;;;25.77;18.42;;;8.10;99.90;;;;;;5094654;28;20024;-64
2023/01/09 05:19:48;;;;;;;24.00;17.35;;;8.20;99.90;;;;;;5094253;28;20043;-65
2023/01/09 05:22:14;;;;;;;21.52;15.57;;;8.20;99.90;;;;;;5076143;28;20016;-66
2023/01/09 05:24:40;;;;;;;21.75;15.57;;;8.30;99.90;;;;;;5094345;28;20478;-68
2023/01/09 05:27:06;;;;;;;19.00;13.93;;;8.20;99.90;;;;;;5094121;28;20020;-64
2023/01/09 05:29:31;;;;;;;16.48;13.07;;;8.20;99.90;;;;;;5094352;28;20028;-67
2023/01/09 05:31:57;;;;;;;18.63;13.93;;;8.20;99.90;;;;;;5094301;28;20023;-64
2023/01/09 05:34:23;;;;;;;31.70;23.17;;;8.30;99.90;;;;;;5094277;28;20028;-62
2023/01/09 05:36:49;;;;;;;45.95;29.92;;;8.30;99.90;;;;;;5093831;28;20099;-69
2023/01/09 05:39:14;;;;;;;43.42;29.70;;;8.20;99.90;;;;;;5093941;28;20069;-66
2023/01/09 05:41:40;;;;;;;37.17;25.92;;;8.10;99.90;;;;;;5076015;28;20381;-69
2023/01/09 05:44:06;;;;;;;37.60;25.83;;;8.20;99.90;;;;;;5093928;28;20016;-67
2023/01/09 05:46:32;;;;;;;37.88;25.27;;;8.30;99.90;;;;;;5093945;28;20490;-63
2023/01/09 05:48:58;;;;;;;33.15;24.40;;;8.40;99.90;;;;;;5093924;28;20020;-61
2023/01/09 05:51:23;;;;;;;31.02;22.10;;;8.40;99.90;;;;;;5093829;28;20528;-66
2023/01/09 05:53:49;;;;;;;30.92;21.30;;;8.40;99.90;;;;;;5093841;28;20431;-65
2023/01/09 05:56:15;;;;;;;31.42;19.55;;;8.50;99.90;;;;;;5093820;28;20072;-67
2023/01/09 05:58:41;;;;;;;136.07;84.55;;;8.30;99.90;;;;;;5093394;28;20096;-67
2023/01/09 06:01:07;;;;;;;102.28;67.97;;;8.00;99.90;;;;;;5091896;28;20020;-65
2023/01/09 06:03:33;;;;;;;79.13;52.80;;;7.70;99.90;;;;;;5084161;28;20028;-67
2023/01/09 06:05:59;;;;;;;40.92;28.42;;;7.70;99.90;;;;;;5093676;28;20099;-64
2023/01/09 06:08:24;;;;;;;41.35;27.90;;;7.90;99.90;;;;;;5075524;28;20027;-63
2023/01/09 06:10:50;;;;;;;35.10;24.08;;;8.00;99.90;;;;;;5089692;28;20089;-61
2023/01/09 06:13:16;;;;;;;35.85;25.40;;;8.10;99.90;;;;;;5090478;28;20483;-67
2023/01/09 06:15:42;;;;;;;34.88;24.05;;;8.20;99.90;;;;;;5083154;28;20032;-66
2023/01/09 06:18:08;;;;;;;32.15;22.30;;;8.30;99.90;;;;;;5094865;28;20020;-64
2023/01/09 06:20:34;;;;;;;27.52;18.67;;;8.40;99.90;;;;;;5098026;28;20032;-62
2023/01/09 06:23:00;;;;;;;22.77;16.70;;;8.60;99.90;;;;;;5098154;28;20028;-68
2023/01/09 06:25:25;;;;;;;19.77;15.88;;;8.60;99.90;;;;;;5079982;28;20016;-68
2023/01/09 06:27:51;;;;;;;19.88;14.98;;;8.60;99.90;;;;;;5097947;28;20040;-65
2023/01/09 06:30:18;;;;;;;18.05;12.63;;;8.60;99.90;;;;;;5079283;28;20028;-65
2023/01/09 06:32:43;;;;;;;17.67;13.13;;;8.70;99.90;;;;;;5097441;28;20462;-67
2023/01/09 06:35:09;;;;;;;24.17;16.13;;;8.80;99.90;;;;;;5097525;28;20020;-62
2023/01/09 06:37:35;;;;;;;46.13;31.92;;;8.90;99.90;;;;;;5079316;28;20423;-68
2023/01/09 06:40:01;;;;;;;45.55;30.33;;;8.80;99.90;;;;;;5097269;28;20036;-65
2023/01/09 06:42:27;;;;;;;47.75;33.17;;;8.80;99.90;;;;;;5078546;28;20036;-66
2023/01/09 06:44:52;;;;;;;41.72;29.30;;;8.80;99.90;;;;;;5077466;28;20032;-65
2023/01/09 06:47:18;;;;;;;39.95;28.35;;;8.80;99.90;;;;;;5081927;28;20032;-62
2023/01/09 06:49:44;;;;;;;36.92;25.90;;;8.90;99.90;;;;;;5096891;28;20052;-68
2023/01/09 06:52:09;;;;;;;34.08;24.75;;;9.00;99.90;;;;;;5096965;28;20090;-65
2023/01/09 06:54:35;;;;;;;33.47;23.55;;;9.10;99.90;;;;;;5093856;28;20069;-63
2023/01/09 06:57:01;;;;;;;41.28;26.88;;;9.20;99.90;;;;;;5076832;28;20051;-69
2023/01/09 06:59:26;;;;;;;34.47;25.10;;;9.30;99.90;;;;;;5085310;28;20465;-67
2023/01/09 07:01:52;;;;;;;30.77;23.00;;;9.30;99.90;;;;;;5095783;28;20107;-62
2023/01/09 07:04:20;;;;;;;40.42;27.80;;;9.40;99.90;;;;;;5094787;28;20024;-64
2023/01/09 07:06:47;;;;;;;35.53;25.98;;;9.50;99.90;;;;;;5094926;28;20032;-66
2023/01/09 07:09:13;;;;;;;33.25;25.00;;;9.40;99.90;;;;;;5096815;28;20032;-68
2023/01/09 07:11:39;;;;;;;28.23;20.80;;;9.50;99.90;;;;;;5094786;28;20020;-68
2023/01/09 07:14:05;;;;;;;43.55;29.70;;;9.50;99.90;;;;;;5094656;28;20020;-63
2023/01/09 07:16:32;;;;;;;41.58;28.73;;;9.50;99.90;;;;;;5096015;28;20020;-68
2023/01/09 07:18:58;;;;;;;36.72;27.35;;;9.50;99.90;;;;;;5089045;28;20553;-64
2023/01/09 07:21:24;;;;;;;34.88;23.50;;;9.40;99.90;;;;;;5095476;28;20032;-64
2023/01/09 07:23:50;;;;;;;33.38;25.15;;;9.50;99.90;;;;;;5096315;28;20432;-64
2023/01/09 07:26:15;;;;;;;35.28;24.30;;;9.50;99.90;;;;;;5096177;28;20023;-66
2023/01/09 07:28:41;;;;;;;33.03;23.98;;;9.60;99.90;;;;;;5075096;28;20161;-66
2023/01/09 07:31:07;;;;;;;36.38;25.75;;;9.60;99.90;;;;;;5089465;28;20024;-62
2023/01/09 07:33:34;;;;;;;33.33;23.40;;;9.60;99.90;;;;;;5087920;28;20028;-68
2023/01/09 07:35:59;;;;;;;32.97;24.33;;;9.70;99.90;;;;;;5091689;28;20025;-65
2023/01/09 07:38:25;;;;;;;33.40;23.10;;;9.70;99.90;;;;;;5095472;28;20028;-63
2023/01/09 07:40:51;;;;;;;31.95;23.13;;;9.80;99.90;;;;;;5095709;28;20034;-66
2023/01/09 07:43:17;;;;;;;26.38;21.02;;;9.90;99.90;;;;;;5094007;28;20157;-67
2023/01/09 07:45:44;;;;;;;38.30;27.85;;;9.90;99.90;;;;;;5092383;28;20035;-64
2023/01/09 07:48:10;;;;;;;52.28;35.38;;;10.00;99.90;;;;;;5094896;28;20012;-66
2023/01/09 07:50:36;;;;;;;47.40;33.63;;;10.00;99.90;;;;;;5095849;28;20115;-67
2023/01/09 07:53:01;;;;;;;54.45;38.35;;;10.00;99.90;;;;;;5076360;28;20077;-66
2023/01/09 07:55:27;;;;;;;49.67;36.20;;;10.00;99.90;;;;;;5094673;28;20099;-70
2023/01/09 07:57:53;;;;;;;60.20;39.50;;;10.10;99.90;;;;;;5094554;28;20123;-67
2023/01/09 08:00:19;;;;;;;45.70;34.05;;;10.10;99.90;;;;;;5093551;28;20048;-63
2023/01/09 08:02:50;;;;;;;63.25;39.85;;;10.20;99.90;;;;;;5091515;28;20463;-66
